sensor_id;sensor_type;location;lat;lon;timestamp;P1;durP1;ratioP1;P2;durP2;ratioP2
37787;SDS011;23627;53.302;-6.362;2022-09-09T00:01:41;5.63;;;2.53;;
37787;SDS011;23627;53.302;-6.362;2022-09-09T00:06:57;7.30;;;2.70;;
37787;SDS011;23627;53.302;-6.362;2022-09-09T00:09:41;6.93;;;2.95;;
37787;SDS011;23627;53.302;-6.362;2022-09-09T00:15:21;3.75;;;2.10;;
37787;SDS011;23627;53.302;-6.362;2022-09-09T00:20:43;5.13;;;2.40;;
37787;SDS011;23627;53.302;-6.362;2022-09-09T00:23:29;6.50;;;2.30;;
37787;SDS011;23627;53.302;-6.362;2022-09-09T00:26:09;7.28;;;2.63;;
37787;SDS011;23627;53.302;-6.362;2022-09-09T00:31:34;4.03;;;2.20;;
37787;SDS011;23627;53.302;-6.362;2022-09-09T00:34:12;6.13;;;2.60;;
37787;SDS011;23627;53.302;-6.362;2022-09-09T00:36:43;5.63;;;3.10;;
37787;SDS011;23627;53.302;-6.362;2022-09-09T00:39:18;4.18;;;2.45;;
37787;SDS011;23627;53.302;-6.362;2022-09-09T00:42:13;4.47;;;2.35;;
37787;SDS011;23627;53.302;-6.362;2022-09-09T00:44:57;4.07;;;2.05;;
37787;SDS011;23627;53.302;-6.362;2022-09-09T00:52:49;6.32;;;2.40;;
37787;SDS011;23627;53.302;-6.362;2022-09-09T00:55:33;4.53;;;2.28;;
37787;SDS011;23627;53.302;-6.362;2022-09-09T00:58:29;6.38;;;2.22;;
37787;SDS011;23627;53.302;-6.362;2022-09-09T01:08:40;5.35;;;2.25;;
37787;SDS011;23627;53.302;-6.362;2022-09-09T01:11:30;4.68;;;2.08;;
37787;SDS011;23627;53.302;-6.362;2022-09-09T01:14:20;4.10;;;2.13;;
37787;SDS011;23627;53.302;-6.362;2022-09-09T01:16:56;4.90;;;2.53;;
37787;SDS011;23627;53.302;-6.362;2022-09-09T01:19:36;4.70;;;2.85;;
37787;SDS011;23627;53.302;-6.362;2022-09-09T01:27:54;4.72;;;2.50;;
37787;SDS011;23627;53.302;-6.362;2022-09-09T01:30:23;4.65;;;2.38;;
37787;SDS011;23627;53.302;-6.362;2022-09-09T01:32:54;3.78;;;2.50;;
37787;SDS011;23627;53.302;-6.362;2022-09-09T01:38:01;4.30;;;2.30;;
37787;SDS011;23627;53.302;-6.362;2022-09-09T01:40:27;3.70;;;2.50;;
37787;SDS011;23627;53.302;-6.362;2022-09-09T01:42:52;4.32;;;2.17;;
37787;SDS011;23627;53.302;-6.362;2022-09-09T01:45:19;3.25;;;2.10;;
37787;SDS011;23627;53.302;-6.362;2022-09-09T01:47:46;3.67;;;2.00;;
37787;SDS011;23627;53.302;-6.362;2022-09-09T01:50:13;3.92;;;2.08;;
37787;SDS011;23627;53.302;-6.362;2022-09-09T01:52:41;2.95;;;2.08;;
37787;SDS011;23627;53.302;-6.362;2022-09-09T01:55:09;3.92;;;2.42;;
37787;SDS011;23627;53.302;-6.362;2022-09-09T01:57:50;6.43;;;2.70;;
37787;SDS011;23627;53.302;-6.362;2022-09-09T02:00:30;3.75;;;2.55;;
37787;SDS011;23627;53.302;-6.362;2022-09-09T02:03:09;4.35;;;2.00;;
37787;SDS011;23627;53.302;-6.362;2022-09-09T02:08:49;4.25;;;2.78;;
37787;SDS011;23627;53.302;-6.362;2022-09-09T02:11:17;3.95;;;2.30;;
37787;SDS011;23627;53.302;-6.362;2022-09-09T02:13:47;3.42;;;1.77;;
37787;SDS011;23627;53.302;-6.362;2022-09-09T02:16:26;4.03;;;2.28;;
37787;SDS011;23627;53.302;-6.362;2022-09-09T02:19:00;4.82;;;2.72;;
37787;SDS011;23627;53.302;-6.362;2022-09-09T02:21:42;3.97;;;2.15;;
37787;SDS011;23627;53.302;-6.362;2022-09-09T02:24:10;3.92;;;2.50;;
37787;SDS011;23627;53.302;-6.362;2022-09-09T02:26:41;3.60;;;2.50;;
37787;SDS011;23627;53.302;-6.362;2022-09-09T02:29:14;4.63;;;3.10;;
37787;SDS011;23627;53.302;-6.362;2022-09-09T02:31:44;4.28;;;2.90;;
37787;SDS011;23627;53.302;-6.362;2022-09-09T02:34:12;4.95;;;2.72;;
37787;SDS011;23627;53.302;-6.362;2022-09-09T02:36:41;2.92;;;2.00;;
37787;SDS011;23627;53.302;-6.362;2022-09-09T02:39:10;3.67;;;2.22;;
37787;SDS011;23627;53.302;-6.362;2022-09-09T02:41:38;3.17;;;2.20;;
37787;SDS011;23627;53.302;-6.362;2022-09-09T02:44:08;3.97;;;2.70;;
37787;SDS011;23627;53.302;-6.362;2022-09-09T02:46:52;5.25;;;2.40;;
37787;SDS011;23627;53.302;-6.362;2022-09-09T02:55:37;6.22;;;2.60;;
37787;SDS011;23627;53.302;-6.362;2022-09-09T02:58:07;3.72;;;2.28;;
37787;SDS011;23627;53.302;-6.362;2022-09-09T03:00:36;3.60;;;2.20;;
37787;SDS011;23627;53.302;-6.362;2022-09-09T03:03:03;3.65;;;2.53;;
37787;SDS011;23627;53.302;-6.362;2022-09-09T03:05:30;3.60;;;2.50;;
37787;SDS011;23627;53.302;-6.362;2022-09-09T03:07:56;3.47;;;2.33;;
37787;SDS011;23627;53.302;-6.362;2022-09-09T03:10:23;4.20;;;2.33;;
37787;SDS011;23627;53.302;-6.362;2022-09-09T03:12:49;3.78;;;2.10;;
37787;SDS011;23627;53.302;-6.362;2022-09-09T03:15:15;3.25;;;2.22;;
37787;SDS011;23627;53.302;-6.362;2022-09-09T03:17:41;3.90;;;2.30;;
37787;SDS011;23627;53.302;-6.362;2022-09-09T03:20:07;5.03;;;2.25;;
37787;SDS011;23627;53.302;-6.362;2022-09-09T03:22:33;3.92;;;2.00;;
37787;SDS011;23627;53.302;-6.362;2022-09-09T03:24:59;5.20;;;2.40;;
37787;SDS011;23627;53.302;-6.362;2022-09-09T03:27:27;5.15;;;1.90;;
37787;SDS011;23627;53.302;-6.362;2022-09-09T03:29:53;3.05;;;2.10;;
37787;SDS011;23627;53.302;-6.362;2022-09-09T03:32:19;4.80;;;2.47;;
37787;SDS011;23627;53.302;-6.362;2022-09-09T03:34:47;3.80;;;1.90;;
37787;SDS011;23627;53.302;-6.362;2022-09-09T03:37:15;4.00;;;1.90;;
37787;SDS011;23627;53.302;-6.362;2022-09-09T03:39:42;3.92;;;1.85;;
37787;SDS011;23627;53.302;-6.362;2022-09-09T03:42:08;3.30;;;2.00;;
37787;SDS011;23627;53.302;-6.362;2022-09-09T03:44:34;3.33;;;1.85;;
37787;SDS011;23627;53.302;-6.362;2022-09-09T03:46:59;3.22;;;1.80;;
37787;SDS011;23627;53.302;-6.362;2022-09-09T03:49:26;5.30;;;2.38;;
37787;SDS011;23627;53.302;-6.362;2022-09-09T03:51:54;5.00;;;2.10;;
37787;SDS011;23627;53.302;-6.362;2022-09-09T03:54:21;4.10;;;2.10;;
37787;SDS011;23627;53.302;-6.362;2022-09-09T03:56:48;4.95;;;2.30;;
37787;SDS011;23627;53.302;-6.362;2022-09-09T03:59:13;4.53;;;2.28;;
37787;SDS011;23627;53.302;-6.362;2022-09-09T04:01:39;4.07;;;2.20;;
37787;SDS011;23627;53.302;-6.362;2022-09-09T04:04:05;3.25;;;1.98;;
37787;SDS011;23627;53.302;-6.362;2022-09-09T04:06:31;2.42;;;2.17;;
37787;SDS011;23627;53.302;-6.362;2022-09-09T04:08:56;3.50;;;2.17;;
37787;SDS011;23627;53.302;-6.362;2022-09-09T04:11:22;3.67;;;2.05;;
37787;SDS011;23627;53.302;-6.362;2022-09-09T04:13:48;3.53;;;2.08;;
37787;SDS011;23627;53.302;-6.362;2022-09-09T04:16:14;3.80;;;1.90;;
37787;SDS011;23627;53.302;-6.362;2022-09-09T04:18:40;2.92;;;1.73;;
37787;SDS011;23627;53.302;-6.362;2022-09-09T04:21:07;4.72;;;1.90;;
37787;SDS011;23627;53.302;-6.362;2022-09-09T04:23:35;4.35;;;2.30;;
37787;SDS011;23627;53.302;-6.362;2022-09-09T04:26:01;3.20;;;1.98;;
37787;SDS011;23627;53.302;-6.362;2022-09-09T04:28:32;3.95;;;2.20;;
37787;SDS011;23627;53.302;-6.362;2022-09-09T04:31:07;2.63;;;2.00;;
37787;SDS011;23627;53.302;-6.362;2022-09-09T04:33:42;3.92;;;2.03;;
37787;SDS011;23627;53.302;-6.362;2022-09-09T04:36:07;3.08;;;1.65;;
37787;SDS011;23627;53.302;-6.362;2022-09-09T04:38:33;2.17;;;1.83;;
37787;SDS011;23627;53.302;-6.362;2022-09-09T04:40:59;3.53;;;2.08;;
37787;SDS011;23627;53.302;-6.362;2022-09-09T04:43:25;3.80;;;1.80;;
37787;SDS011;23627;53.302;-6.362;2022-09-09T04:45:55;3.35;;;1.80;;
37787;SDS011;23627;53.302;-6.362;2022-09-09T04:48:21;2.85;;;1.67;;
37787;SDS011;23627;53.302;-6.362;2022-09-09T04:50:54;3.97;;;1.77;;
37787;SDS011;23627;53.302;-6.362;2022-09-09T04:53:21;3.60;;;1.80;;
37787;SDS011;23627;53.302;-6.362;2022-09-09T04:55:47;4.50;;;1.70;;
37787;SDS011;23627;53.302;-6.362;2022-09-09T04:58:14;3.25;;;1.73;;
37787;SDS011;23627;53.302;-6.362;2022-09-09T05:00:40;2.78;;;1.60;;
37787;SDS011;23627;53.302;-6.362;2022-09-09T05:03:06;2.95;;;1.58;;
37787;SDS011;23627;53.302;-6.362;2022-09-09T05:05:33;2.90;;;1.50;;
37787;SDS011;23627;53.302;-6.362;2022-09-09T05:08:03;2.88;;;1.67;;
37787;SDS011;23627;53.302;-6.362;2022-09-09T05:10:30;2.90;;;1.60;;
37787;SDS011;23627;53.302;-6.362;2022-09-09T05:12:56;2.65;;;1.80;;
37787;SDS011;23627;53.302;-6.362;2022-09-09T05:15:22;3.08;;;1.95;;
37787;SDS011;23627;53.302;-6.362;2022-09-09T05:17:48;3.38;;;1.75;;
37787;SDS011;23627;53.302;-6.362;2022-09-09T05:20:14;2.63;;;1.52;;
37787;SDS011;23627;53.302;-6.362;2022-09-09T05:22:40;2.38;;;1.55;;
37787;SDS011;23627;53.302;-6.362;2022-09-09T05:25:06;4.07;;;1.65;;
37787;SDS011;23627;53.302;-6.362;2022-09-09T05:27:35;3.22;;;1.70;;
37787;SDS011;23627;53.302;-6.362;2022-09-09T05:30:02;2.20;;;1.58;;
37787;SDS011;23627;53.302;-6.362;2022-09-09T05:32:29;2.88;;;1.67;;
37787;SDS011;23627;53.302;-6.362;2022-09-09T05:34:58;2.95;;;1.50;;
37787;SDS011;23627;53.302;-6.362;2022-09-09T05:37:24;2.42;;;1.63;;
37787;SDS011;23627;53.302;-6.362;2022-09-09T05:39:50;2.85;;;1.60;;
37787;SDS011;23627;53.302;-6.362;2022-09-09T05:42:16;2.88;;;1.63;;
37787;SDS011;23627;53.302;-6.362;2022-09-09T05:44:42;3.22;;;1.50;;
37787;SDS011;23627;53.302;-6.362;2022-09-09T05:47:08;3.72;;;1.77;;
37787;SDS011;23627;53.302;-6.362;2022-09-09T05:49:34;2.67;;;1.63;;
37787;SDS011;23627;53.302;-6.362;2022-09-09T05:52:00;3.03;;;1.55;;
37787;SDS011;23627;53.302;-6.362;2022-09-09T05:54:26;2.47;;;1.55;;
37787;SDS011;23627;53.302;-6.362;2022-09-09T05:56:51;3.53;;;1.58;;
37787;SDS011;23627;53.302;-6.362;2022-09-09T05:59:18;2.95;;;1.33;;
37787;SDS011;23627;53.302;-6.362;2022-09-09T06:01:44;2.72;;;1.42;;
37787;SDS011;23627;53.302;-6.362;2022-09-09T06:04:10;2.40;;;1.48;;
37787;SDS011;23627;53.302;-6.362;2022-09-09T06:06:37;1.95;;;1.48;;
37787;SDS011;23627;53.302;-6.362;2022-09-09T06:09:05;2.05;;;1.60;;
37787;SDS011;23627;53.302;-6.362;2022-09-09T06:11:34;2.85;;;1.60;;
37787;SDS011;23627;53.302;-6.362;2022-09-09T06:14:01;4.22;;;1.77;;
37787;SDS011;23627;53.302;-6.362;2022-09-09T06:16:27;2.97;;;1.48;;
37787;SDS011;23627;53.302;-6.362;2022-09-09T06:18:54;2.30;;;1.52;;
37787;SDS011;23627;53.302;-6.362;2022-09-09T06:21:22;3.35;;;1.70;;
37787;SDS011;23627;53.302;-6.362;2022-09-09T06:23:49;3.17;;;1.70;;
37787;SDS011;23627;53.302;-6.362;2022-09-09T06:28:48;2.42;;;1.40;;
37787;SDS011;23627;53.302;-6.362;2022-09-09T06:31:16;3.30;;;1.88;;
37787;SDS011;23627;53.302;-6.362;2022-09-09T06:33:46;3.17;;;1.52;;
37787;SDS011;23627;53.302;-6.362;2022-09-09T06:36:13;3.97;;;1.45;;
37787;SDS011;23627;53.302;-6.362;2022-09-09T06:38:41;1.77;;;1.20;;
37787;SDS011;23627;53.302;-6.362;2022-09-09T06:41:08;3.22;;;1.58;;
37787;SDS011;23627;53.302;-6.362;2022-09-09T06:43:35;2.60;;;1.48;;
37787;SDS011;23627;53.302;-6.362;2022-09-09T06:46:04;1.75;;;1.10;;
37787;SDS011;23627;53.302;-6.362;2022-09-09T06:48:35;1.95;;;1.33;;
37787;SDS011;23627;53.302;-6.362;2022-09-09T06:53:40;2.22;;;1.67;;
37787;SDS011;23627;53.302;-6.362;2022-09-09T06:58:36;2.00;;;1.15;;
37787;SDS011;23627;53.302;-6.362;2022-09-09T07:01:08;2.15;;;1.42;;
37787;SDS011;23627;53.302;-6.362;2022-09-09T07:03:35;1.40;;;1.30;;
37787;SDS011;23627;53.302;-6.362;2022-09-09T07:06:01;1.95;;;1.42;;
37787;SDS011;23627;53.302;-6.362;2022-09-09T07:08:29;1.50;;;1.30;;
37787;SDS011;23627;53.302;-6.362;2022-09-09T07:11:01;1.75;;;1.25;;
37787;SDS011;23627;53.302;-6.362;2022-09-09T07:13:29;1.52;;;1.25;;
37787;SDS011;23627;53.302;-6.362;2022-09-09T07:16:03;2.03;;;1.00;;
37787;SDS011;23627;53.302;-6.362;2022-09-09T07:18:30;2.90;;;1.30;;
37787;SDS011;23627;53.302;-6.362;2022-09-09T07:20:56;2.40;;;1.27;;
37787;SDS011;23627;53.302;-6.362;2022-09-09T07:23:22;2.13;;;1.10;;
37787;SDS011;23627;53.302;-6.362;2022-09-09T07:25:49;2.45;;;1.20;;
37787;SDS011;23627;53.302;-6.362;2022-09-09T07:28:15;2.40;;;1.25;;
37787;SDS011;23627;53.302;-6.362;2022-09-09T07:30:42;3.28;;;1.33;;
37787;SDS011;23627;53.302;-6.362;2022-09-09T07:33:08;1.23;;;1.10;;
37787;SDS011;23627;53.302;-6.362;2022-09-09T07:35:37;2.45;;;1.40;;
37787;SDS011;23627;53.302;-6.362;2022-09-09T07:38:03;2.63;;;1.30;;
37787;SDS011;23627;53.302;-6.362;2022-09-09T07:40:32;3.30;;;1.67;;
37787;SDS011;23627;53.302;-6.362;2022-09-09T07:42:59;3.60;;;1.30;;
37787;SDS011;23627;53.302;-6.362;2022-09-09T07:45:25;2.22;;;1.67;;
37787;SDS011;23627;53.302;-6.362;2022-09-09T07:47:53;3.38;;;1.67;;
37787;SDS011;23627;53.302;-6.362;2022-09-09T07:50:22;2.70;;;1.60;;
37787;SDS011;23627;53.302;-6.362;2022-09-09T07:52:48;2.47;;;1.80;;
37787;SDS011;23627;53.302;-6.362;2022-09-09T07:55:15;3.05;;;1.65;;
37787;SDS011;23627;53.302;-6.362;2022-09-09T07:57:42;2.20;;;1.75;;
37787;SDS011;23627;53.302;-6.362;2022-09-09T08:00:08;3.63;;;1.88;;
37787;SDS011;23627;53.302;-6.362;2022-09-09T08:02:35;2.92;;;1.45;;
37787;SDS011;23627;53.302;-6.362;2022-09-09T08:05:01;1.50;;;1.38;;
37787;SDS011;23627;53.302;-6.362;2022-09-09T08:07:27;2.17;;;1.50;;
37787;SDS011;23627;53.302;-6.362;2022-09-09T08:09:56;2.25;;;1.70;;
37787;SDS011;23627;53.302;-6.362;2022-09-09T08:12:22;3.10;;;2.08;;
37787;SDS011;23627;53.302;-6.362;2022-09-09T08:14:48;2.78;;;1.75;;
37787;SDS011;23627;53.302;-6.362;2022-09-09T08:17:14;1.65;;;1.30;;
37787;SDS011;23627;53.302;-6.362;2022-09-09T08:19:44;4.72;;;1.48;;
37787;SDS011;23627;53.302;-6.362;2022-09-09T08:22:14;4.30;;;1.42;;
37787;SDS011;23627;53.302;-6.362;2022-09-09T08:24:40;2.45;;;1.70;;
37787;SDS011;23627;53.302;-6.362;2022-09-09T08:27:07;1.67;;;1.33;;
37787;SDS011;23627;53.302;-6.362;2022-09-09T08:29:36;1.85;;;1.27;;
37787;SDS011;23627;53.302;-6.362;2022-09-09T08:32:06;1.30;;;1.00;;
37787;SDS011;23627;53.302;-6.362;2022-09-09T08:34:39;2.83;;;1.50;;
37787;SDS011;23627;53.302;-6.362;2022-09-09T08:37:06;1.27;;;1.15;;
37787;SDS011;23627;53.302;-6.362;2022-09-09T08:39:34;1.85;;;1.10;;
37787;SDS011;23627;53.302;-6.362;2022-09-09T08:42:22;1.80;;;1.13;;
37787;SDS011;23627;53.302;-6.362;2022-09-09T08:50:48;1.48;;;1.00;;
37787;SDS011;23627;53.302;-6.362;2022-09-09T08:53:22;1.80;;;0.93;;
37787;SDS011;23627;53.302;-6.362;2022-09-09T08:58:51;1.35;;;1.05;;
37787;SDS011;23627;53.302;-6.362;2022-09-09T09:11:59;1.10;;;1.00;;
37787;SDS011;23627;53.302;-6.362;2022-09-09T09:14:30;1.45;;;1.05;;
37787;SDS011;23627;53.302;-6.362;2022-09-09T09:19:32;2.15;;;1.00;;
37787;SDS011;23627;53.302;-6.362;2022-09-09T09:24:59;3.10;;;1.55;;
37787;SDS011;23627;53.302;-6.362;2022-09-09T09:30:34;1.88;;;1.10;;
37787;SDS011;23627;53.302;-6.362;2022-09-09T09:33:06;2.75;;;1.10;;
37787;SDS011;23627;53.302;-6.362;2022-09-09T09:35:56;1.65;;;1.30;;
37787;SDS011;23627;53.302;-6.362;2022-09-09T09:38:25;2.08;;;1.08;;
37787;SDS011;23627;53.302;-6.362;2022-09-09T09:40:56;2.72;;;1.25;;
37787;SDS011;23627;53.302;-6.362;2022-09-09T09:43:28;4.00;;;1.30;;
37787;SDS011;23627;53.302;-6.362;2022-09-09T09:45:55;2.63;;;1.38;;
37787;SDS011;23627;53.302;-6.362;2022-09-09T09:48:22;5.28;;;1.50;;
37787;SDS011;23627;53.302;-6.362;2022-09-09T09:51:02;2.50;;;1.42;;
37787;SDS011;23627;53.302;-6.362;2022-09-09T09:53:36;2.38;;;1.50;;
37787;SDS011;23627;53.302;-6.362;2022-09-09T09:56:05;2.80;;;1.30;;
37787;SDS011;23627;53.302;-6.362;2022-09-09T09:58:35;2.47;;;1.27;;
37787;SDS011;23627;53.302;-6.362;2022-09-09T10:01:29;2.95;;;1.10;;
37787;SDS011;23627;53.302;-6.362;2022-09-09T10:23:26;2.70;;;1.48;;
37787;SDS011;23627;53.302;-6.362;2022-09-09T10:40:26;1.70;;;1.10;;
37787;SDS011;23627;53.302;-6.362;2022-09-09T10:42:55;2.15;;;1.20;;
37787;SDS011;23627;53.302;-6.362;2022-09-09T10:45:44;2.67;;;1.10;;
37787;SDS011;23627;53.302;-6.362;2022-09-09T10:51:23;2.20;;;0.90;;
37787;SDS011;23627;53.302;-6.362;2022-09-09T10:57:02;3.22;;;1.00;;
37787;SDS011;23627;53.302;-6.362;2022-09-09T10:59:35;2.30;;;0.90;;
37787;SDS011;23627;53.302;-6.362;2022-09-09T11:04:46;1.88;;;0.90;;
37787;SDS011;23627;53.302;-6.362;2022-09-09T11:11:04;2.72;;;0.90;;
37787;SDS011;23627;53.302;-6.362;2022-09-09T11:19:00;1.00;;;0.75;;
37787;SDS011;23627;53.302;-6.362;2022-09-09T11:21:46;2.20;;;1.05;;
37787;SDS011;23627;53.302;-6.362;2022-09-09T11:24:18;3.00;;;1.48;;
37787;SDS011;23627;53.302;-6.362;2022-09-09T11:27:26;1.40;;;1.13;;
37787;SDS011;23627;53.302;-6.362;2022-09-09T11:33:07;1.23;;;1.13;;
37787;SDS011;23627;53.302;-6.362;2022-09-09T11:38:27;2.42;;;1.20;;
37787;SDS011;23627;53.302;-6.362;2022-09-09T11:41:09;1.55;;;1.20;;
37787;SDS011;23627;53.302;-6.362;2022-09-09T11:46:44;1.30;;;1.10;;
37787;SDS011;23627;53.302;-6.362;2022-09-09T11:49:28;2.63;;;1.30;;
37787;SDS011;23627;53.302;-6.362;2022-09-09T11:53:02;1.48;;;0.90;;
37787;SDS011;23627;53.302;-6.362;2022-09-09T12:00:57;2.25;;;1.15;;
37787;SDS011;23627;53.302;-6.362;2022-09-09T12:09:46;1.25;;;1.10;;
37787;SDS011;23627;53.302;-6.362;2022-09-09T12:12:52;1.20;;;0.90;;
37787;SDS011;23627;53.302;-6.362;2022-09-09T12:15:34;1.25;;;0.95;;
37787;SDS011;23627;53.302;-6.362;2022-09-09T12:18:14;2.17;;;1.13;;
37787;SDS011;23627;53.302;-6.362;2022-09-09T12:25:30;1.00;;;0.80;;
37787;SDS011;23627;53.302;-6.362;2022-09-09T12:28:00;1.42;;;0.93;;
37787;SDS011;23627;53.302;-6.362;2022-09-09T12:33:36;0.80;;;0.77;;
37787;SDS011;23627;53.302;-6.362;2022-09-09T12:36:29;1.00;;;0.70;;
37787;SDS011;23627;53.302;-6.362;2022-09-09T12:42:47;1.15;;;0.65;;
37787;SDS011;23627;53.302;-6.362;2022-09-09T12:45:24;1.63;;;0.80;;
37787;SDS011;23627;53.302;-6.362;2022-09-09T12:50:47;1.80;;;0.80;;
37787;SDS011;23627;53.302;-6.362;2022-09-09T12:53:22;1.20;;;0.70;;
37787;SDS011;23627;53.302;-6.362;2022-09-09T12:56:08;1.83;;;0.80;;
37787;SDS011;23627;53.302;-6.362;2022-09-09T12:58:47;1.05;;;0.80;;
37787;SDS011;23627;53.302;-6.362;2022-09-09T13:01:35;1.70;;;0.98;;
37787;SDS011;23627;53.302;-6.362;2022-09-09T13:04:01;1.45;;;1.10;;
37787;SDS011;23627;53.302;-6.362;2022-09-09T13:06:31;2.45;;;0.75;;
37787;SDS011;23627;53.302;-6.362;2022-09-09T13:08:58;1.02;;;0.77;;
37787;SDS011;23627;53.302;-6.362;2022-09-09T13:14:31;2.03;;;0.75;;
37787;SDS011;23627;53.302;-6.362;2022-09-09T13:17:03;1.10;;;0.90;;
37787;SDS011;23627;53.302;-6.362;2022-09-09T13:19:47;1.15;;;0.80;;
37787;SDS011;23627;53.302;-6.362;2022-09-09T13:22:22;1.20;;;0.90;;
37787;SDS011;23627;53.302;-6.362;2022-09-09T13:27:39;1.92;;;1.00;;
37787;SDS011;23627;53.302;-6.362;2022-09-09T13:30:31;1.75;;;0.80;;
37787;SDS011;23627;53.302;-6.362;2022-09-09T13:35:53;2.58;;;0.98;;
37787;SDS011;23627;53.302;-6.362;2022-09-09T13:42:04;4.63;;;1.10;;
37787;SDS011;23627;53.302;-6.362;2022-09-09T14:20:38;2.53;;;1.73;;
37787;SDS011;23627;53.302;-6.362;2022-09-09T14:23:04;1.10;;;0.98;;
37787;SDS011;23627;53.302;-6.362;2022-09-09T14:25:30;1.35;;;0.80;;
37787;SDS011;23627;53.302;-6.362;2022-09-09T14:27:56;1.73;;;0.57;;
37787;SDS011;23627;53.302;-6.362;2022-09-09T14:30:23;2.35;;;0.70;;
37787;SDS011;23627;53.302;-6.362;2022-09-09T14:32:51;1.25;;;0.77;;
37787;SDS011;23627;53.302;-6.362;2022-09-09T14:35:17;1.23;;;0.65;;
37787;SDS011;23627;53.302;-6.362;2022-09-09T14:37:44;1.30;;;0.90;;
37787;SDS011;23627;53.302;-6.362;2022-09-09T14:40:11;1.50;;;0.90;;
37787;SDS011;23627;53.302;-6.362;2022-09-09T14:42:56;1.45;;;0.98;;
37787;SDS011;23627;53.302;-6.362;2022-09-09T14:45:28;1.63;;;1.17;;
37787;SDS011;23627;53.302;-6.362;2022-09-09T14:47:54;1.98;;;1.10;;
37787;SDS011;23627;53.302;-6.362;2022-09-09T14:50:20;3.17;;;1.48;;
37787;SDS011;23627;53.302;-6.362;2022-09-09T14:52:48;1.45;;;1.23;;
37787;SDS011;23627;53.302;-6.362;2022-09-09T14:55:16;2.67;;;1.20;;
37787;SDS011;23627;53.302;-6.362;2022-09-09T14:57:42;1.25;;;1.00;;
37787;SDS011;23627;53.302;-6.362;2022-09-09T15:00:09;1.90;;;1.20;;
37787;SDS011;23627;53.302;-6.362;2022-09-09T15:02:36;1.20;;;1.10;;
37787;SDS011;23627;53.302;-6.362;2022-09-09T15:05:02;2.42;;;1.50;;
37787;SDS011;23627;53.302;-6.362;2022-09-09T15:07:29;2.13;;;1.35;;
37787;SDS011;23627;53.302;-6.362;2022-09-09T15:09:57;2.03;;;1.27;;
37787;SDS011;23627;53.302;-6.362;2022-09-09T15:12:23;2.28;;;1.60;;
37787;SDS011;23627;53.302;-6.362;2022-09-09T15:17:47;1.52;;;0.98;;
37787;SDS011;23627;53.302;-6.362;2022-09-09T15:20:16;1.20;;;1.00;;
37787;SDS011;23627;53.302;-6.362;2022-09-09T15:22:42;1.80;;;0.88;;
37787;SDS011;23627;53.302;-6.362;2022-09-09T15:25:08;1.77;;;1.13;;
37787;SDS011;23627;53.302;-6.362;2022-09-09T15:27:33;1.48;;;1.00;;
37787;SDS011;23627;53.302;-6.362;2022-09-09T15:29:59;3.25;;;1.48;;
37787;SDS011;23627;53.302;-6.362;2022-09-09T15:32:26;1.73;;;1.08;;
37787;SDS011;23627;53.302;-6.362;2022-09-09T15:34:52;1.35;;;0.95;;
37787;SDS011;23627;53.302;-6.362;2022-09-09T15:37:19;3.00;;;1.08;;
37787;SDS011;23627;53.302;-6.362;2022-09-09T15:39:44;0.98;;;0.75;;
37787;SDS011;23627;53.302;-6.362;2022-09-09T15:42:10;0.93;;;0.80;;
37787;SDS011;23627;53.302;-6.362;2022-09-09T15:44:45;0.98;;;0.80;;
37787;SDS011;23627;53.302;-6.362;2022-09-09T15:47:16;1.10;;;1.00;;
37787;SDS011;23627;53.302;-6.362;2022-09-09T15:49:45;2.38;;;1.05;;
37787;SDS011;23627;53.302;-6.362;2022-09-09T15:55:07;1.05;;;0.95;;
37787;SDS011;23627;53.302;-6.362;2022-09-09T15:57:42;2.15;;;1.00;;
37787;SDS011;23627;53.302;-6.362;2022-09-09T16:00:08;1.60;;;1.00;;
37787;SDS011;23627;53.302;-6.362;2022-09-09T16:02:37;2.33;;;1.15;;
37787;SDS011;23627;53.302;-6.362;2022-09-09T16:05:13;1.13;;;0.90;;
37787;SDS011;23627;53.302;-6.362;2022-09-09T16:07:45;2.42;;;1.40;;
37787;SDS011;23627;53.302;-6.362;2022-09-09T16:10:12;2.95;;;1.13;;
37787;SDS011;23627;53.302;-6.362;2022-09-09T16:12:39;1.75;;;1.00;;
37787;SDS011;23627;53.302;-6.362;2022-09-09T16:15:05;1.58;;;1.15;;
37787;SDS011;23627;53.302;-6.362;2022-09-09T16:17:40;1.63;;;1.00;;
37787;SDS011;23627;53.302;-6.362;2022-09-09T16:20:07;1.92;;;1.05;;
37787;SDS011;23627;53.302;-6.362;2022-09-09T16:39:22;2.08;;;1.20;;
37787;SDS011;23627;53.302;-6.362;2022-09-09T16:51:38;4.10;;;1.40;;
37787;SDS011;23627;53.302;-6.362;2022-09-09T16:57:12;3.50;;;1.15;;
37787;SDS011;23627;53.302;-6.362;2022-09-09T16:59:38;2.05;;;1.23;;
37787;SDS011;23627;53.302;-6.362;2022-09-09T17:02:22;1.83;;;1.10;;
37787;SDS011;23627;53.302;-6.362;2022-09-09T17:09:06;1.52;;;1.20;;
37787;SDS011;23627;53.302;-6.362;2022-09-09T17:11:34;2.67;;;1.40;;
37787;SDS011;23627;53.302;-6.362;2022-09-09T17:14:13;1.88;;;1.40;;
37787;SDS011;23627;53.302;-6.362;2022-09-09T17:16:43;2.35;;;1.45;;
37787;SDS011;23627;53.302;-6.362;2022-09-09T17:19:21;1.80;;;1.40;;
37787;SDS011;23627;53.302;-6.362;2022-09-09T17:22:16;2.65;;;1.73;;
37787;SDS011;23627;53.302;-6.362;2022-09-09T17:24:48;2.63;;;1.55;;
37787;SDS011;23627;53.302;-6.362;2022-09-09T17:28:15;2.75;;;1.67;;
37787;SDS011;23627;53.302;-6.362;2022-09-09T17:30:41;2.83;;;1.60;;
37787;SDS011;23627;53.302;-6.362;2022-09-09T17:33:13;2.92;;;2.20;;
37787;SDS011;23627;53.302;-6.362;2022-09-09T17:35:43;3.53;;;1.70;;
37787;SDS011;23627;53.302;-6.362;2022-09-09T17:38:09;4.93;;;2.35;;
37787;SDS011;23627;53.302;-6.362;2022-09-09T17:40:37;3.10;;;1.60;;
37787;SDS011;23627;53.302;-6.362;2022-09-09T17:43:03;4.05;;;1.60;;
37787;SDS011;23627;53.302;-6.362;2022-09-09T17:45:32;2.13;;;1.23;;
37787;SDS011;23627;53.302;-6.362;2022-09-09T17:47:58;2.60;;;1.30;;
37787;SDS011;23627;53.302;-6.362;2022-09-09T17:50:24;2.72;;;1.50;;
37787;SDS011;23627;53.302;-6.362;2022-09-09T17:52:50;2.20;;;1.15;;
37787;SDS011;23627;53.302;-6.362;2022-09-09T17:55:15;2.55;;;1.20;;
37787;SDS011;23627;53.302;-6.362;2022-09-09T17:57:46;1.80;;;1.02;;
37787;SDS011;23627;53.302;-6.362;2022-09-09T18:00:12;2.40;;;1.10;;
37787;SDS011;23627;53.302;-6.362;2022-09-09T18:02:38;2.50;;;1.23;;
37787;SDS011;23627;53.302;-6.362;2022-09-09T18:05:04;2.97;;;1.20;;
37787;SDS011;23627;53.302;-6.362;2022-09-09T18:07:30;2.22;;;0.90;;
37787;SDS011;23627;53.302;-6.362;2022-09-09T18:09:56;2.28;;;0.88;;
37787;SDS011;23627;53.302;-6.362;2022-09-09T18:12:22;2.58;;;0.93;;
37787;SDS011;23627;53.302;-6.362;2022-09-09T18:14:47;1.30;;;0.60;;
37787;SDS011;23627;53.302;-6.362;2022-09-09T18:17:15;1.55;;;0.70;;
37787;SDS011;23627;53.302;-6.362;2022-09-09T18:19:41;1.40;;;0.75;;
37787;SDS011;23627;53.302;-6.362;2022-09-09T18:22:07;2.58;;;0.60;;
37787;SDS011;23627;53.302;-6.362;2022-09-09T18:24:33;1.98;;;0.82;;
37787;SDS011;23627;53.302;-6.362;2022-09-09T18:27:00;1.48;;;0.60;;
37787;SDS011;23627;53.302;-6.362;2022-09-09T18:29:26;1.55;;;0.50;;
37787;SDS011;23627;53.302;-6.362;2022-09-09T18:31:58;1.58;;;0.40;;
37787;SDS011;23627;53.302;-6.362;2022-09-09T18:34:24;1.27;;;0.50;;
37787;SDS011;23627;53.302;-6.362;2022-09-09T18:36:52;2.55;;;0.40;;
37787;SDS011;23627;53.302;-6.362;2022-09-09T18:39:20;1.70;;;0.40;;
37787;SDS011;23627;53.302;-6.362;2022-09-09T18:41:50;1.45;;;0.50;;
37787;SDS011;23627;53.302;-6.362;2022-09-09T18:44:19;1.73;;;0.40;;
37787;SDS011;23627;53.302;-6.362;2022-09-09T18:46:47;1.05;;;0.50;;
37787;SDS011;23627;53.302;-6.362;2022-09-09T18:49:14;1.58;;;0.40;;
37787;SDS011;23627;53.302;-6.362;2022-09-09T18:51:41;2.28;;;0.50;;
37787;SDS011;23627;53.302;-6.362;2022-09-09T18:54:13;2.03;;;0.45;;
37787;SDS011;23627;53.302;-6.362;2022-09-09T18:59:10;2.35;;;0.60;;
37787;SDS011;23627;53.302;-6.362;2022-09-09T19:01:38;2.78;;;0.70;;
37787;SDS011;23627;53.302;-6.362;2022-09-09T19:04:04;2.67;;;0.63;;
37787;SDS011;23627;53.302;-6.362;2022-09-09T19:06:31;3.80;;;0.60;;
37787;SDS011;23627;53.302;-6.362;2022-09-09T19:08:58;2.30;;;0.52;;